createdAt,value
2023-02-04T00:02:04.220Z,1.10
2023-02-04T00:04:30.720Z,1.35
2023-02-04T00:06:57.098Z,1.80
2023-02-04T00:09:23.533Z,1.30
2023-02-04T00:11:49.954Z,1.30
2023-02-04T00:14:16.320Z,1.27
2023-02-04T00:16:42.690Z,1.10
2023-02-04T00:19:09.083Z,1.33
2023-02-04T00:21:35.434Z,1.17
2023-02-04T00:24:01.790Z,1.42
2023-02-04T00:26:28.196Z,1.75
2023-02-04T00:28:54.631Z,1.75
2023-02-04T00:31:21.143Z,1.35
2023-02-04T00:33:47.929Z,1.42
2023-02-04T00:36:14.425Z,2.35
2023-02-04T00:38:40.770Z,1.50
2023-02-04T00:41:07.212Z,1.27
2023-02-04T00:43:33.699Z,1.88
2023-02-04T00:46:00.318Z,1.70
2023-02-04T00:48:27.018Z,1.38
2023-02-04T00:50:54.266Z,1.35
2023-02-04T00:53:20.780Z,1.10
2023-02-04T00:55:47.214Z,1.50
2023-02-04T00:58:13.856Z,1.08
2023-02-04T01:00:40.534Z,1.13
2023-02-04T01:03:07.168Z,1.17
2023-02-04T01:05:33.712Z,1.10
2023-02-04T01:08:00.304Z,1.27
2023-02-04T01:10:26.745Z,1.20
2023-02-04T01:12:53.305Z,1.50
2023-02-04T01:15:19.852Z,1.00
2023-02-04T01:17:46.194Z,1.15
2023-02-04T01:20:12.657Z,1.02
2023-02-04T01:22:39.037Z,1.02
2023-02-04T01:25:05.988Z,0.73
2023-02-04T01:27:32.386Z,0.63
2023-02-04T01:29:58.809Z,1.52
2023-02-04T01:32:25.345Z,0.80
2023-02-04T01:34:51.725Z,1.45
2023-02-04T01:37:18.289Z,1.08
2023-02-04T01:39:44.674Z,1.02
2023-02-04T01:42:11.603Z,1.10
2023-02-04T01:44:39.418Z,1.50
2023-02-04T01:47:06.243Z,1.88
2023-02-04T01:49:32.758Z,0.90
2023-02-04T01:51:59.350Z,0.80
2023-02-04T01:54:26.560Z,1.17
2023-02-04T01:56:55.186Z,2.22
2023-02-04T01:59:22.312Z,1.30
2023-02-04T02:01:51.411Z,1.40
2023-02-04T02:04:29.622Z,1.10
2023-02-04T02:06:59.650Z,1.08
2023-02-04T02:09:27.669Z,0.65
2023-02-04T02:11:54.421Z,0.88
2023-02-04T02:14:21.231Z,1.20
2023-02-04T02:16:47.771Z,0.80
2023-02-04T02:19:22.158Z,0.85
2023-02-04T02:22:05.236Z,0.70
2023-02-04T02:24:33.668Z,0.65
2023-02-04T02:27:04.840Z,1.00
2023-02-04T02:29:31.564Z,0.82
2023-02-04T02:31:58.731Z,1.15
2023-02-04T02:34:27.420Z,1.00
2023-02-04T02:36:54.418Z,10.93
2023-02-04T02:39:21.703Z,1.10
2023-02-04T02:41:48.556Z,0.77
2023-02-04T02:44:17.228Z,0.93
2023-02-04T02:46:44.302Z,0.70
2023-02-04T02:49:16.004Z,0.73
2023-02-04T02:51:43.350Z,1.00
2023-02-04T02:54:45.730Z,1.35
2023-02-04T02:57:19.023Z,1.25
2023-02-04T02:59:45.890Z,1.25
2023-02-04T03:02:15.621Z,1.25
2023-02-04T03:04:45.702Z,1.55
2023-02-04T03:07:13.964Z,1.00
2023-02-04T03:09:40.397Z,1.17
2023-02-04T03:12:07.014Z,1.02
2023-02-04T03:14:34.532Z,1.58
2023-02-04T03:17:02.587Z,1.02
2023-02-04T03:19:29.513Z,1.65
2023-02-04T03:21:57.074Z,0.98
2023-02-04T03:24:24.187Z,1.25
2023-02-04T03:26:50.601Z,1.10
2023-02-04T03:29:17.326Z,1.00
2023-02-04T03:31:43.831Z,1.05
2023-02-04T03:34:10.195Z,1.73
2023-02-04T03:36:36.669Z,0.90
2023-02-04T03:39:03.700Z,1.45
2023-02-04T03:41:30.240Z,4.55
2023-02-04T03:43:56.604Z,0.80
2023-02-04T03:46:25.833Z,1.90
2023-02-04T03:48:52.207Z,1.40
2023-02-04T03:51:18.611Z,1.27
2023-02-04T03:53:44.997Z,0.77
2023-02-04T03:56:11.382Z,1.27
2023-02-04T03:58:37.971Z,1.73
2023-02-04T04:01:04.461Z,1.55
2023-02-04T04:03:30.929Z,0.93
2023-02-04T04:05:57.281Z,1.50
2023-02-04T04:08:23.681Z,1.20
2023-02-04T04:10:50.156Z,1.08
2023-02-04T04:13:16.593Z,0.90
2023-02-04T04:15:43.090Z,1.42
2023-02-04T04:18:09.497Z,1.00
2023-02-04T04:20:35.869Z,1.00
2023-02-04T04:23:02.519Z,0.63
2023-02-04T04:25:29.036Z,1.20
2023-02-04T04:27:55.423Z,1.02
2023-02-04T04:30:21.828Z,1.30
2023-02-04T04:32:48.415Z,1.35
2023-02-04T04:35:14.872Z,1.02
2023-02-04T04:37:41.230Z,1.00
2023-02-04T04:40:09.204Z,1.13
2023-02-04T04:42:35.601Z,1.05
2023-02-04T04:45:02.097Z,0.88
2023-02-04T04:47:28.535Z,0.85
2023-02-04T04:49:55.004Z,1.58
2023-02-04T04:52:21.347Z,2.08
2023-02-04T04:54:47.779Z,0.68
2023-02-04T04:57:14.189Z,1.80
2023-02-04T04:59:40.525Z,1.63
2023-02-04T05:02:06.879Z,0.95
2023-02-04T05:04:33.259Z,0.73
2023-02-04T05:06:59.730Z,0.95
2023-02-04T05:09:26.230Z,1.38
2023-02-04T05:11:52.747Z,1.17
2023-02-04T05:14:19.506Z,0.88
2023-02-04T05:16:45.881Z,1.10
2023-02-04T05:19:12.273Z,0.95
2023-02-04T05:21:38.642Z,1.40
2023-02-04T05:24:06.498Z,0.93
2023-02-04T05:26:33.171Z,0.73
2023-02-04T05:29:00.760Z,0.90
2023-02-04T05:31:27.793Z,1.55
2023-02-04T05:33:54.659Z,1.42
2023-02-04T05:36:21.432Z,1.25
2023-02-04T05:38:47.933Z,0.73
2023-02-04T05:41:14.314Z,0.50
2023-02-04T05:43:42.957Z,0.73
2023-02-04T05:46:09.384Z,0.70
2023-02-04T05:48:35.780Z,0.50
2023-02-04T05:51:02.177Z,0.60
2023-02-04T05:53:28.581Z,0.60
2023-02-04T05:55:55.094Z,0.43
2023-02-04T05:58:21.618Z,0.60
2023-02-04T06:00:48.170Z,0.10
2023-02-04T06:03:14.752Z,0.30
2023-02-04T06:05:41.462Z,0.40
2023-02-04T06:08:08.027Z,0.50
2023-02-04T06:10:34.591Z,0.20
2023-02-04T06:13:00.985Z,0.38
2023-02-04T06:15:27.339Z,0.47
2023-02-04T06:17:53.773Z,0.38
2023-02-04T06:20:20.356Z,0.28
2023-02-04T06:22:47.591Z,0.40
2023-02-04T06:25:14.096Z,0.30
2023-02-04T06:27:41.648Z,0.30
2023-02-04T06:30:08.954Z,0.47
2023-02-04T06:32:35.367Z,0.22
2023-02-04T06:35:01.809Z,0.30
2023-02-04T06:37:28.152Z,0.28
2023-02-04T06:39:54.678Z,0.30
2023-02-04T06:42:21.177Z,0.25
2023-02-04T06:44:47.503Z,0.25
2023-02-04T06:47:13.872Z,0.30
2023-02-04T06:49:40.308Z,0.47
2023-02-04T06:52:06.676Z,0.30
2023-02-04T06:54:33.069Z,0.40
2023-02-04T06:57:06.548Z,0.32
2023-02-04T06:59:37.769Z,0.30
2023-02-04T07:02:05.585Z,0.45
2023-02-04T07:04:31.979Z,0.30
2023-02-04T07:06:58.424Z,0.30
2023-02-04T07:09:25.349Z,0.40
2023-02-04T07:11:52.010Z,0.52
2023-02-04T07:14:18.866Z,0.30
2023-02-04T07:16:45.326Z,0.68
2023-02-04T07:19:11.693Z,0.60
2023-02-04T07:21:38.162Z,1.27
2023-02-04T07:24:04.779Z,1.00
2023-02-04T07:26:31.148Z,0.90
2023-02-04T07:28:57.500Z,0.75
2023-02-04T07:31:23.988Z,0.70
2023-02-04T07:33:50.443Z,0.47
2023-02-04T07:36:17.086Z,0.38
2023-02-04T07:38:43.577Z,0.60
2023-02-04T07:41:10.068Z,0.50
2023-02-04T07:43:36.734Z,0.50
2023-02-04T07:46:03.200Z,0.50
2023-02-04T07:48:30.605Z,0.50
2023-02-04T07:50:57.079Z,0.63
2023-02-04T07:53:23.522Z,0.90
2023-02-04T07:55:50.068Z,0.75
2023-02-04T07:58:16.460Z,0.80
2023-02-04T08:00:42.945Z,0.80
2023-02-04T08:03:09.436Z,0.80
2023-02-04T08:05:36.907Z,0.70
2023-02-04T08:08:03.327Z,0.70
2023-02-04T08:10:30.105Z,0.77
2023-02-04T08:12:56.707Z,0.80
2023-02-04T08:15:23.038Z,0.70
2023-02-04T08:17:49.449Z,0.50
2023-02-04T08:20:17.190Z,0.60
2023-02-04T08:22:43.785Z,0.60
2023-02-04T08:25:11.684Z,0.60
2023-02-04T08:27:38.877Z,0.60
2023-02-04T08:30:12.049Z,0.50
2023-02-04T08:32:39.340Z,0.80
2023-02-04T08:35:07.108Z,0.50
2023-02-04T08:37:33.703Z,0.52
2023-02-04T08:40:00.310Z,0.75
2023-02-04T08:42:26.717Z,0.68
2023-02-04T08:44:53.165Z,0.30
2023-02-04T08:47:19.574Z,0.50
2023-02-04T08:49:46.025Z,0.40
2023-02-04T08:52:12.392Z,0.60
2023-02-04T08:54:38.962Z,0.50
2023-02-04T08:57:05.690Z,0.30
2023-02-04T08:59:33.166Z,0.38
2023-02-04T09:01:59.635Z,0.40
2023-02-04T09:04:26.174Z,0.40
2023-02-04T09:06:52.580Z,0.30
2023-02-04T09:09:20.438Z,0.50
2023-02-04T09:11:48.049Z,0.30
2023-02-04T09:14:14.408Z,0.45
2023-02-04T09:16:40.790Z,0.25
2023-02-04T09:19:12.411Z,0.47
2023-02-04T09:21:38.967Z,0.38
2023-02-04T09:24:05.313Z,0.45
2023-02-04T09:26:31.876Z,0.38
2023-02-04T09:28:58.238Z,0.82
2023-02-04T09:31:24.810Z,0.47
2023-02-04T09:33:51.446Z,0.52
2023-02-04T09:36:18.095Z,0.40
2023-02-04T09:38:44.458Z,0.45
2023-02-04T09:41:12.742Z,0.30
2023-02-04T09:43:41.872Z,0.40
2023-02-04T09:46:20.489Z,0.40
2023-02-04T09:48:47.386Z,0.30
2023-02-04T09:51:18.202Z,0.25
2023-02-04T09:53:45.272Z,0.32
2023-02-04T09:56:12.900Z,0.30
2023-02-04T09:58:39.280Z,0.50
2023-02-04T10:01:23.888Z,0.57
2023-02-04T10:03:51.679Z,0.40
2023-02-04T10:06:20.898Z,0.22
2023-02-04T10:08:50.186Z,0.32
2023-02-04T10:11:19.995Z,0.30
2023-02-04T10:13:50.308Z,0.60
2023-02-04T10:16:23.609Z,0.30
2023-02-04T10:18:50.595Z,0.30
2023-02-04T10:21:28.327Z,0.28
2023-02-04T10:24:00.691Z,0.38
2023-02-04T10:26:29.943Z,0.45
2023-02-04T10:29:08.221Z,0.32
2023-02-04T10:31:42.511Z,0.43
2023-02-04T10:34:33.758Z,0.25
2023-02-04T10:37:01.221Z,0.50
2023-02-04T10:39:29.946Z,0.22
2023-02-04T10:41:58.770Z,0.40
2023-02-04T10:44:35.836Z,0.30
2023-02-04T10:47:15.136Z,0.45
2023-02-04T10:49:51.434Z,0.22
2023-02-04T10:52:21.224Z,0.50
2023-02-04T10:54:48.283Z,0.40
2023-02-04T10:57:21.881Z,0.32
2023-02-04T10:59:51.807Z,0.50
2023-02-04T11:02:33.320Z,0.30
2023-02-04T11:05:01.306Z,0.40
2023-02-04T11:07:29.105Z,0.30
2023-02-04T11:09:55.583Z,0.30
2023-02-04T11:12:41.030Z,0.25
2023-02-04T11:15:28.417Z,0.28
2023-02-04T11:18:09.630Z,0.30
2023-02-04T11:20:39.929Z,0.30
2023-02-04T11:23:32.511Z,0.38
2023-02-04T11:26:07.616Z,0.70
2023-02-04T11:29:18.121Z,0.30
2023-02-04T11:31:47.618Z,0.43
2023-02-04T11:34:18.280Z,0.30
2023-02-04T11:37:10.150Z,0.47
2023-02-04T11:39:42.554Z,0.30
2023-02-04T11:42:26.746Z,0.30
2023-02-04T11:45:14.067Z,0.30
2023-02-04T11:47:41.032Z,0.20
2023-02-04T11:50:17.804Z,0.25
2023-02-04T11:52:44.254Z,0.28
2023-02-04T11:55:12.316Z,0.40
2023-02-04T11:57:43.516Z,0.20
2023-02-04T12:02:45.573Z,0.20
2023-02-04T12:05:17.599Z,0.30
2023-02-04T12:07:45.377Z,0.25
2023-02-04T12:10:13.558Z,0.20
2023-02-04T12:12:49.177Z,0.30
2023-02-04T12:15:17.302Z,0.60
2023-02-04T12:17:46.978Z,0.20
2023-02-04T12:20:13.976Z,0.30
2023-02-04T12:22:40.360Z,0.30
2023-02-04T12:25:07.357Z,0.20
2023-02-04T12:27:33.774Z,0.30
2023-02-04T12:30:00.129Z,0.57
2023-02-04T12:32:26.459Z,0.70
2023-02-04T12:34:52.851Z,0.93
2023-02-04T12:37:19.288Z,0.70
2023-02-04T12:39:45.720Z,0.90
2023-02-04T12:42:12.068Z,0.47
2023-02-04T12:44:38.644Z,0.35
2023-02-04T12:47:05.494Z,0.45
2023-02-04T12:49:31.914Z,0.43
2023-02-04T12:52:02.009Z,0.47
2023-02-04T12:54:28.412Z,0.30
2023-02-04T12:56:58.067Z,0.40
2023-02-04T12:59:26.116Z,0.40
2023-02-04T13:01:52.544Z,0.50
2023-02-04T13:04:19.126Z,0.32
2023-02-04T13:06:45.653Z,0.40
2023-02-04T13:09:13.090Z,0.43
2023-02-04T13:11:39.524Z,0.35
2023-02-04T13:14:05.931Z,0.40
2023-02-04T13:16:32.862Z,0.43
2023-02-04T13:18:59.357Z,0.47
2023-02-04T13:21:25.728Z,0.50
2023-02-04T13:23:52.624Z,0.40
2023-02-04T13:26:21.291Z,0.32
2023-02-04T13:28:47.850Z,0.35
2023-02-04T13:31:16.593Z,0.40
2023-02-04T13:33:43.103Z,0.30
2023-02-04T13:36:09.807Z,0.43
2023-02-04T13:38:36.273Z,0.50
2023-02-04T13:41:02.861Z,0.30
2023-02-04T13:43:29.469Z,0.50
2023-02-04T13:45:57.665Z,0.70
2023-02-04T13:48:24.509Z,0.30
2023-02-04T13:50:50.978Z,0.35
2023-02-04T13:53:17.732Z,0.30
2023-02-04T13:55:44.307Z,0.47
2023-02-04T13:58:11.006Z,0.40
2023-02-04T14:00:38.471Z,0.52
2023-02-04T14:03:05.256Z,0.30
2023-02-04T14:05:31.783Z,0.77
2023-02-04T14:07:58.329Z,0.30
2023-02-04T14:10:26.660Z,0.40
2023-02-04T14:12:53.187Z,0.30
2023-02-04T14:15:19.710Z,0.30
2023-02-04T14:17:46.230Z,0.43
2023-02-04T14:20:12.876Z,0.30
2023-02-04T14:22:39.630Z,0.50
2023-02-04T14:25:06.637Z,0.50
2023-02-04T14:27:35.253Z,0.43
2023-02-04T14:30:01.669Z,0.52
2023-02-04T14:32:28.100Z,0.40
2023-02-04T14:34:54.436Z,0.35
2023-02-04T14:37:20.831Z,0.40
2023-02-04T14:39:48.299Z,0.25
2023-02-04T14:42:14.735Z,0.40
2023-02-04T14:44:41.867Z,0.30
2023-02-04T14:47:08.524Z,0.57
2023-02-04T14:49:37.898Z,0.43
2023-02-04T14:52:04.528Z,0.50
2023-02-04T14:54:31.949Z,0.40
2023-02-04T14:56:58.334Z,0.30
2023-02-04T14:59:24.956Z,0.40
2023-02-04T15:01:51.367Z,0.30
2023-02-04T15:04:18.475Z,0.40
2023-02-04T15:06:46.250Z,0.45
2023-02-04T15:09:12.804Z,0.40
2023-02-04T15:11:39.314Z,0.20
2023-02-04T15:14:05.810Z,0.25
2023-02-04T15:16:32.470Z,0.20
2023-02-04T15:18:59.033Z,0.40
2023-02-04T15:21:25.614Z,0.20
2023-02-04T15:23:52.024Z,0.25
2023-02-04T15:26:18.759Z,0.50
2023-02-04T15:28:45.148Z,0.40
2023-02-04T15:31:12.441Z,2.00
2023-02-04T15:33:38.930Z,1.40
2023-02-04T15:36:05.752Z,0.90
2023-02-04T15:38:32.176Z,1.60
2023-02-04T15:40:58.547Z,1.33
2023-02-04T15:43:27.188Z,4.90
2023-02-04T15:45:53.706Z,1.45
2023-02-04T15:48:21.070Z,1.05
2023-02-04T15:50:47.469Z,1.08
2023-02-04T15:53:13.886Z,0.82
2023-02-04T15:55:40.252Z,1.38
2023-02-04T15:58:06.625Z,1.00
2023-02-04T16:00:34.670Z,0.63
2023-02-04T16:03:01.309Z,0.55
2023-02-04T16:05:27.939Z,1.00
2023-02-04T16:07:54.351Z,1.95
2023-02-04T16:10:22.279Z,1.02
2023-02-04T16:12:51.169Z,1.30
2023-02-04T16:15:18.124Z,0.77
2023-02-04T16:17:44.593Z,1.10
2023-02-04T16:20:11.975Z,1.52
2023-02-04T16:22:38.360Z,2.10
2023-02-04T16:25:05.043Z,1.70
2023-02-04T16:27:31.874Z,1.48
2023-02-04T16:29:58.281Z,1.55
2023-02-04T16:32:24.859Z,1.42
2023-02-04T16:34:51.302Z,1.10
2023-02-04T16:37:17.813Z,0.90
2023-02-04T16:39:45.178Z,0.90
2023-02-04T16:42:12.652Z,0.93
2023-02-04T16:44:39.398Z,1.10
2023-02-04T16:47:07.032Z,2.30
2023-02-04T16:49:34.156Z,2.95
2023-02-04T16:52:05.063Z,1.48
2023-02-04T16:54:32.537Z,1.70
2023-02-04T16:57:03.653Z,0.90
2023-02-04T16:59:31.849Z,0.73
2023-02-04T17:02:00.443Z,0.88
2023-02-04T17:04:27.267Z,1.15
2023-02-04T17:06:53.700Z,1.50
2023-02-04T17:09:20.167Z,0.90
2023-02-04T17:11:46.581Z,1.60
2023-02-04T17:14:15.776Z,1.25
2023-02-04T17:16:43.065Z,0.80
2023-02-04T17:19:09.545Z,1.20
2023-02-04T17:21:37.747Z,1.00
2023-02-04T17:24:05.560Z,0.95
2023-02-04T17:26:37.159Z,2.22
2023-02-04T17:29:09.670Z,3.10
2023-02-04T17:31:36.816Z,2.17
2023-02-04T17:34:03.879Z,1.70
2023-02-04T17:36:31.313Z,1.00
2023-02-04T17:38:58.085Z,1.13
2023-02-04T17:41:24.518Z,1.48
2023-02-04T17:43:51.579Z,1.50
2023-02-04T17:46:18.076Z,2.05
2023-02-04T17:48:44.825Z,2.28
2023-02-04T17:51:11.217Z,1.90
2023-02-04T17:53:40.313Z,2.50
2023-02-04T17:56:12.122Z,9.30
2023-02-04T17:58:40.434Z,15.60
2023-02-04T18:01:13.796Z,25.48
2023-02-04T18:03:45.910Z,11.57
2023-02-04T18:06:24.444Z,6.25
2023-02-04T18:08:51.803Z,3.08
2023-02-04T18:11:31.758Z,2.28
2023-02-04T18:14:07.494Z,1.60
2023-02-04T18:16:34.538Z,1.40
2023-02-04T18:19:18.276Z,1.40
2023-02-04T18:21:45.533Z,1.70
2023-02-04T18:24:27.156Z,2.40
2023-02-04T18:26:56.476Z,2.38
2023-02-04T18:29:36.386Z,1.27
2023-02-04T18:32:08.910Z,1.20
2023-02-04T18:34:37.915Z,1.00
2023-02-04T18:37:26.197Z,1.23
2023-02-04T18:40:12.972Z,2.42
2023-02-04T18:42:41.948Z,1.70
2023-02-04T18:45:20.497Z,2.40
2023-02-04T18:47:47.012Z,4.25
2023-02-04T18:50:33.736Z,3.67
2023-02-04T18:53:24.708Z,2.00
2023-02-04T18:55:57.809Z,1.25
2023-02-04T18:58:40.554Z,1.20
2023-02-04T19:01:10.966Z,1.20
2023-02-04T19:03:51.237Z,0.93
2023-02-04T19:06:25.752Z,1.20
2023-02-04T19:08:53.022Z,2.25
2023-02-04T19:11:41.122Z,3.28
2023-02-04T19:14:44.246Z,2.25
2023-02-04T19:17:14.714Z,3.95
2023-02-04T19:19:47.897Z,5.88
2023-02-04T19:22:18.752Z,6.38
2023-02-04T19:24:46.554Z,3.53
2023-02-04T19:27:18.877Z,3.10
2023-02-04T19:29:45.352Z,2.28
2023-02-04T19:32:22.232Z,2.78
2023-02-04T19:34:48.781Z,4.20
2023-02-04T19:37:22.771Z,7.93
2023-02-04T19:39:51.191Z,9.68
2023-02-04T19:42:35.119Z,7.40
2023-02-04T19:45:17.242Z,6.70
2023-02-04T19:47:45.907Z,3.70
2023-02-04T19:50:12.445Z,3.08
2023-02-04T19:52:47.983Z,4.40
2023-02-04T19:55:18.522Z,3.90
2023-02-04T19:57:48.503Z,3.90
2023-02-04T20:00:40.979Z,6.15
2023-02-04T20:03:15.562Z,3.20
2023-02-04T20:05:42.228Z,3.30
2023-02-04T20:08:28.726Z,4.35
2023-02-04T20:10:57.457Z,4.03
2023-02-04T20:13:25.717Z,3.38
2023-02-04T20:15:57.370Z,3.00
2023-02-04T20:18:26.328Z,5.07
2023-02-04T20:20:54.569Z,8.18
2023-02-04T20:23:33.049Z,6.25
2023-02-04T20:26:02.370Z,3.15
2023-02-04T20:28:40.626Z,2.83
2023-02-04T20:31:22.437Z,2.85
2023-02-04T20:33:52.547Z,3.42
2023-02-04T20:36:40.700Z,2.50
2023-02-04T20:39:32.802Z,2.85
2023-02-04T20:42:18.889Z,3.03
2023-02-04T20:44:46.956Z,1.90
2023-02-04T20:47:18.551Z,2.28
2023-02-04T20:49:55.124Z,2.20
2023-02-04T20:52:39.988Z,2.90
2023-02-04T20:55:25.997Z,5.03
2023-02-04T20:58:01.903Z,7.60
2023-02-04T21:00:34.639Z,7.78
2023-02-04T21:03:13.056Z,13.25
2023-02-04T21:05:40.144Z,10.10
2023-02-04T21:08:33.810Z,12.07
2023-02-04T21:11:01.410Z,10.05
2023-02-04T21:13:27.900Z,9.45
2023-02-04T21:15:54.489Z,12.32
2023-02-04T21:18:21.037Z,9.10
2023-02-04T21:20:47.598Z,9.55
2023-02-04T21:23:14.025Z,9.10
2023-02-04T21:25:40.603Z,7.72
2023-02-04T21:28:07.056Z,4.57
2023-02-04T21:30:33.536Z,7.28
2023-02-04T21:33:00.631Z,5.40
2023-02-04T21:35:27.265Z,4.38
2023-02-04T21:37:58.646Z,5.15
2023-02-04T21:40:26.177Z,5.50
2023-02-04T21:42:52.939Z,4.45
2023-02-04T21:45:21.351Z,4.20
2023-02-04T21:47:49.208Z,3.45
2023-02-04T21:50:16.777Z,2.10
2023-02-04T21:52:44.142Z,2.78
2023-02-04T21:55:12.609Z,2.78
2023-02-04T21:57:39.092Z,3.03
2023-02-04T22:00:07.024Z,3.10
2023-02-04T22:02:33.466Z,2.28
2023-02-04T22:05:00.957Z,2.10
2023-02-04T22:07:27.332Z,1.98
2023-02-04T22:09:53.720Z,1.88
2023-02-04T22:12:20.509Z,2.00
2023-02-04T22:14:48.994Z,1.63
2023-02-04T22:17:16.468Z,1.33
2023-02-04T22:19:42.853Z,1.00
2023-02-04T22:22:09.270Z,0.93
2023-02-04T22:24:35.663Z,1.40
2023-02-04T22:27:02.077Z,1.92
2023-02-04T22:29:33.393Z,0.93
2023-02-04T22:32:01.044Z,1.30
2023-02-04T22:34:27.596Z,1.35
2023-02-04T22:36:54.058Z,1.48
2023-02-04T22:39:20.457Z,1.90
2023-02-04T22:41:46.833Z,1.98
2023-02-04T22:44:13.262Z,1.95
2023-02-04T22:46:39.737Z,2.80
2023-02-04T22:49:06.186Z,2.03
2023-02-04T22:51:33.470Z,2.20
2023-02-04T22:54:01.056Z,2.25
2023-02-04T22:56:28.342Z,2.10
2023-02-04T22:58:54.808Z,1.90
2023-02-04T23:01:21.309Z,1.35
2023-02-04T23:03:48.562Z,0.95
2023-02-04T23:06:15.743Z,1.10
2023-02-04T23:08:42.153Z,0.98
2023-02-04T23:11:09.370Z,0.93
2023-02-04T23:13:36.270Z,0.70
2023-02-04T23:16:02.801Z,1.00
2023-02-04T23:18:29.238Z,0.85
2023-02-04T23:20:55.705Z,1.05
2023-02-04T23:23:22.321Z,1.23
2023-02-04T23:25:49.255Z,1.35
2023-02-04T23:28:16.865Z,1.17
2023-02-04T23:30:43.324Z,1.55
2023-02-04T23:33:10.778Z,2.00
2023-02-04T23:35:37.177Z,1.70
2023-02-04T23:38:03.544Z,2.00
2023-02-04T23:40:29.923Z,1.77
2023-02-04T23:42:56.401Z,2.15
2023-02-04T23:45:22.917Z,1.80
2023-02-04T23:47:49.285Z,1.70
2023-02-04T23:50:16.651Z,2.20
2023-02-04T23:52:43.401Z,1.35
2023-02-04T23:55:09.816Z,1.08
2023-02-04T23:57:36.188Z,1.30
